logo
Search for airport 
image banner adimage banner adimage banner ad
image banner ad

FA0298 - Netcare Blaauwberg Hospital Helistop

Located in , South Africa

ICAO - , IATA -

Data provided by Airmate  

General information

Coordinates: S33°48'13" E18°29'2"
Elevation is 46 feet MSL.
 
View others Airports in Western Cape

Operational data

Special qualification required
Current time UTC:
Current local time:
Weather at : - ( 0 km )
METAR: SCTE 220927Z 00000KT 0900 R35/1000N FG OVC003 06/06 Q1019 NOSIG
View NOTAMs / SUP AIP / TFR affecting this airport [VIEW]
Communications frequencies: [VIEW]

Runways:

Airport contact information

Address: South Africa

Satellite view of FA0298